Buoy 56916

sailwx.info

Track history (hours):
 
Tides and Currents Weather Stations Pressure Air Temp Water Temp Dewpoint Dewpoint Depression Visibility Wind Speed Wind Dir Waves Ship Positions

Drifting buoy 56916

Last reported at 2017-Jun-25 21:00 UTC. Time now 2017-Jun-25 22:36 UTC.
Position S 44°28' E 179°11'.

Barometer 1017.6 mb
Water temperature 10.6 ° C

Date/timePositionNaut miles runAvg speedWind from/ knotsBaromVisibWave heightAir tempDewpointWater temp
2017-Jun-25 21:00S 44°28' E 179°11'2 2.1 1017.6 10.6
2017-Jun-25 20:00S 44°29' E 179°08'0 0.0 1017.1 10.6
2017-Jun-25 19:00S 44°29' E 179°08'2 1.8 1016.6 10.6
2017-Jun-25 18:00S 44°31' E 179°07'2 1.8 1015.9 10.5
2017-Jun-25 17:00S 44°32' E 179°05'0 0.0 1015.1 10.5
2017-Jun-25 16:00S 44°32' E 179°05'2 2.5 1014.6 10.5
2017-Jun-25 15:00S 44°34' E 179°02'0 0.0 1014.4 10.5
2017-Jun-25 14:00S 44°34' E 179°02'3 1.0 1014.1 10.5
2017-Jun-25 11:00S 44°35' E 178°59'1 1.3 1011.8 10.3
2017-Jun-25 10:00S 44°35' E 178°57'0 0.0 1010.8 10.3
2017-Jun-25 09:00S 44°35' E 178°57'3 2.8 1009.8 10.3
2017-Jun-25 08:00S 44°37' E 178°54'1 1.3 1008.6 10.3
2017-Jun-25 07:00S 44°37' E 178°52'2 2.1 1007.2 10.3
2017-Jun-25 06:00S 44°38' E 178°50'0 0.0 1006.0 10.2
2017-Jun-25 05:00S 44°38' E 178°50'2 2.2 1004.7 10.2
2017-Jun-25 04:00S 44°39' E 178°47'4 3.9 1003.8 10.2
2017-Jun-25 03:00S 44°40' E 178°41'0 0.0 1002.7 10.2
2017-Jun-25 02:00S 44°40' E 178°41'1 0.3 1001.6 10.1
2017-Jun-24 22:00S 44°41' E 178°41'0 0.0 998.9 10.0
2017-Jun-24 21:00S 44°41' E 178°41'1 1.4 997.8 10.0
2017-Jun-24 20:00S 44°41' E 178°39'0 0.0 996.6 10.1
2017-Jun-24 19:00S 44°41' E 178°39'4 1.9 995.3 10.1
2017-Jun-24 17:00S 44°43' E 178°34'1 1.4 992.3 10.1
2017-Jun-24 16:00S 44°43' E 178°32'0 0.0 991.3 10.1
2017-Jun-24 15:00S 44°43' E 178°32'1 1.5 991.2 10.1
2017-Jun-24 14:00S 44°41' E 178°31'0 0.0 991.3 10.1
2017-Jun-24 13:00S 44°41' E 178°31'0 0.2 990.8 10.1
2017-Jun-24 11:00S 44°41' E 178°31'1 0.7 991.8 10.1
2017-Jun-24 10:00S 44°41' E 178°30'1 0.7 992.0 10.1
2017-Jun-24 09:00S 44°40' E 178°31'1 0.7 992.2 10.1
2017-Jun-24 08:00S 44°40' E 178°30'1 0.3 992.2 10.1
2017-Jun-24 06:00S 44°39' E 178°30'1 0.6 992.1 10.1
2017-Jun-24 05:00S 44°38' E 178°30'0 0.0 992.5 10.1
2017-Jun-24 04:00S 44°38' E 178°30'0 0.0 992.9 10.2
2017-Jun-24 03:00S 44°38' E 178°30'2 2.4 993.4 10.3
2017-Jun-24 02:00S 44°36' E 178°29'0 0.0 993.8 10.3
2017-Jun-23 21:00S 44°36' E 178°29'1 1.5 998.2 10.4
2017-Jun-23 20:00S 44°35' E 178°28'1 1.5 998.3 10.4
2017-Jun-23 19:00S 44°34' E 178°27'0 0.0 997.9 10.5
2017-Jun-23 18:00S 44°34' E 178°27'2 1.2 997.8 10.5
2017-Jun-23 16:00S 44°31' E 178°28'1 0.6 999.4 10.6
2017-Jun-23 14:00S 44°30' E 178°28'0 0.0 1002.4 10.6
2017-Jun-23 13:00S 44°30' E 178°28'4 4.2 1003.5 10.6
2017-Jun-23 12:00S 44°26' E 178°27'1 1.2 1004.7 10.7
2017-Jun-23 11:00S 44°27' E 178°27'1 1.2 1005.8 10.7
2017-Jun-23 10:00S 44°26' E 178°27'3 1.6 1006.4 10.7
2017-Jun-23 08:00S 44°23' E 178°28'3 2.7 1007.5 10.7
2017-Jun-23 07:00S 44°20' E 178°30'1 1.5 1008.2 10.7
2017-Jun-23 06:00S 44°19' E 178°31'1 1.3 1008.9 10.7
2017-Jun-23 05:00S 44°18' E 178°32'2 1.8 1009.6 10.8
2017-Jun-23 04:00S 44°17' E 178°34'0 0.0 1010.4 10.8
2017-Jun-23 03:00S 44°17' E 178°34'4 0.8 1011.2 10.8
2017-Jun-22 22:00S 44°14' E 178°38'2 1.0 1016.5 10.8
2017-Jun-22 20:00S 44°13' E 178°41'1 0.9 1016.9 10.7
2017-Jun-22 19:00S 44°13' E 178°42'1 0.9 1017.2 10.7
2017-Jun-22 18:00S 44°13' E 178°43'1 0.7 1017.2 10.7
2017-Jun-22 16:00S 44°14' E 178°45'4 3.5 1018.2 10.7
2017-Jun-22 15:00S 44°16' E 178°49'0 0.0 1018.8 10.7
2017-Jun-22 14:00S 44°16' E 178°49'0 0.0 1019.3 10.7
2017-Jun-22 13:00S 44°16' E 178°49'4 1.1 1019.8 10.7
2017-Jun-22 09:00S 44°19' E 178°53'1 0.7 1020.6 10.7
2017-Jun-22 08:00S 44°20' E 178°53'1 1.2 1020.7 10.7
2017-Jun-22 07:00S 44°21' E 178°53'1 0.6 1020.3 10.7
2017-Jun-22 06:00S 44°22' E 178°53'1 0.7 1020.1 10.7
2017-Jun-22 05:00S 44°22' E 178°54'1 1.5 1019.7 10.7
2017-Jun-22 04:00S 44°23' E 178°53'0 0.0 1019.7 10.7
2017-Jun-22 03:00S 44°23' E 178°53'4 0.8 1019.7 10.7
2017-Jun-21 22:00S 44°27' E 178°50'3 1.3 1021.2 10.7
2017-Jun-21 20:00S 44°28' E 178°47'0 0.0 1020.6 10.8
2017-Jun-21 19:00S 44°28' E 178°47'1 0.9 1020.9 10.7
2017-Jun-21 18:00S 44°28' E 178°46'3 0.9 1021.0 10.7
2017-Jun-21 15:00S 44°28' E 178°42'2 1.7 1021.3 10.7
2017-Jun-21 14:00S 44°28' E 178°40'0 0.0 1021.8 10.7
2017-Jun-21 13:00S 44°28' E 178°40'2 1.0 1022.0 10.7
2017-Jun-21 11:00S 44°26' E 178°37'2 1.8 1023.0 10.8
2017-Jun-21 10:00S 44°26' E 178°35'1 1.0 1023.1 10.8
2017-Jun-21 09:00S 44°25' E 178°34'1 0.6 1023.4 10.8
2017-Jun-21 08:00S 44°25' E 178°34'3 1.4 1023.3 10.8
2017-Jun-21 06:00S 44°22' E 178°32'1 1.2 1023.5 10.8
2017-Jun-21 05:00S 44°21' E 178°32'1 0.7 1023.8 10.8
2017-Jun-21 04:00S 44°20' E 178°31'0 0.0 1023.9 10.8
2017-Jun-21 03:00S 44°20' E 178°31'4 0.9 1024.4 10.8
2017-Jun-20 22:00S 44°16' E 178°33'1 1.0 1028.4 10.8
2017-Jun-20 21:00S 44°16' E 178°34'1 1.5 1028.8 10.8
2017-Jun-20 20:00S 44°14' E 178°35'0 0.0 1029.1 10.8
2017-Jun-20 19:00S 44°14' E 178°35'1 0.9 1029.4 10.8
2017-Jun-20 18:00S 44°14' E 178°37'0 0.0 1029.3 10.8
2017-Jun-20 17:00S 44°14' E 178°37'1 0.4 1029.5 10.8
2017-Jun-20 15:00S 44°14' E 178°37'2 0.9 1030.6 10.7
2017-Jun-20 13:00S 44°14' E 178°40'0 0.0 1031.0 10.7
2017-Jun-20 11:00S 44°14' E 178°40'1 0.7 1031.5 10.7
2017-Jun-20 10:00S 44°14' E 178°40'1 0.6 1031.4 10.7
2017-Jun-20 09:00S 44°14' E 178°40'2 1.8 1031.5 10.7
2017-Jun-20 08:00S 44°15' E 178°42'0 0.4 1031.4 10.7
2017-Jun-20 07:00S 44°15' E 178°41'1 1.0 1031.1 10.7
2017-Jun-20 06:00S 44°16' E 178°43'1 1.3 1031.0 10.7
2017-Jun-20 05:00S 44°17' E 178°42'0 0.0 1030.5 10.7
2017-Jun-20 04:00S 44°17' E 178°42'2 1.9 1030.4 10.7
2017-Jun-20 03:00S 44°19' E 178°43'4 4.2 1030.1 10.8
2017-Jun-20 02:00S 44°22' E 178°40'0 0.0 1029.9 10.8
2017-Jun-20 01:00S 44°22' E 178°40'2 0.5 1030.1 10.8
2017-Jun-19 21:00S 44°24' E 178°39'1 0.7 1030.7 10.7
2017-Jun-19 20:00S 44°25' E 178°38'1 0.9 1030.3 10.7
2017-Jun-19 19:00S 44°25' E 178°37'1 0.6 1029.9 10.9
2017-Jun-19 18:00S 44°25' E 178°37'1 1.4 1029.1 10.8
2017-Jun-19 17:00S 44°26' E 178°35'1 0.7 1028.9 10.8
2017-Jun-19 16:00S 44°26' E 178°35'0 0.0 1028.7 10.8
2017-Jun-19 15:00S 44°26' E 178°35'1 1.4 1028.9 10.8
2017-Jun-19 14:00S 44°27' E 178°33'1 1.5 1029.0 10.8
2017-Jun-19 13:00S 44°28' E 178°32'0 0.0 1028.7 10.8
2017-Jun-19 11:00S 44°28' E 178°32'3 3.2 1028.8 10.8
2017-Jun-19 10:00S 44°31' E 178°29'0 0.0 1028.5 10.8
2017-Jun-19 09:00S 44°31' E 178°29'2 2.2 1028.3 10.8
2017-Jun-19 08:00S 44°32' E 178°27'2 2.5 1028.0 10.8
2017-Jun-19 07:00S 44°34' E 178°25'0 0.0 1027.6 10.8
2017-Jun-19 06:00S 44°34' E 178°25'2 1.8 1026.9 10.8
2017-Jun-19 05:00S 44°35' E 178°22'2 2.5 1026.0 10.8
2017-Jun-19 04:00S 44°36' E 178°19'0 0.0 1025.3 10.8
2017-Jun-19 03:00S 44°36' E 178°19'0 0.0 1024.7 10.8
2017-Jun-19 02:00S 44°36' E 178°19'5 5.1 1023.9 10.8
2017-Jun-19 01:00S 44°36' E 178°12'3 0.7 1023.9 10.7
2017-Jun-18 20:00S 44°34' E 178°08'0 0.0 1021.7 10.7
2017-Jun-18 19:00S 44°34' E 178°08'2 2.5 1021.4 10.7
2017-Jun-18 18:00S 44°32' E 178°05'2 2.4 1021.3 10.7
2017-Jun-18 17:00S 44°30' E 178°05'0 0.2 1021.3 10.7
2017-Jun-18 15:00S 44°30' E 178°05'4 4.0 1022.4 10.7
2017-Jun-18 14:00S 44°26' E 178°03'3 2.5 1022.8 10.7
2017-Jun-18 13:00S 44°29' E 178°04'4 3.6 1023.1 10.6
2017-Jun-18 12:00S 44°25' E 178°04'1 1.5 1023.8 10.7
2017-Jun-18 11:00S 44°26' E 178°02'1 1.5 1024.7 10.6
2017-Jun-18 10:00S 44°25' E 178°04'2 1.8 1025.4 10.6
2017-Jun-18 09:00S 44°23' E 178°04'1 0.6 1025.7 10.6
2017-Jun-18 07:00S 44°22' E 178°03'2 1.8 1027.0 10.6
2017-Jun-18 06:00S 44°20' E 178°03'1 0.3 1027.5 10.6
2017-Jun-18 04:00S 44°20' E 178°03'1 0.4 1027.9 10.6
2017-Jun-18 02:00S 44°19' E 178°04'4 3.8 1029.0 10.6
2017-Jun-18 01:00S 44°16' E 178°05'0 0.0 1029.5 10.6
2017-Jun-17 22:00S 44°16' E 178°05'1 0.7 1031.3 10.6
2017-Jun-17 21:00S 44°15' E 178°06'1 0.6 1031.0 10.6
2017-Jun-17 20:00S 44°14' E 178°06'1 0.9 1031.0 10.5
2017-Jun-17 19:00S 44°14' E 178°07'0 0.4 1030.7 10.5
2017-Jun-17 18:00S 44°14' E 178°07'1 0.6 1030.5 10.5
2017-Jun-17 17:00S 44°14' E 178°07'1 0.7 1030.6 10.5
2017-Jun-17 16:00S 44°13' E 178°07'1 1.2 1030.6 10.5
2017-Jun-17 15:00S 44°12' E 178°07'1 0.7 1030.7 10.5
2017-Jun-17 14:00S 44°11' E 178°08'1 0.7 1030.8 10.5
2017-Jun-17 13:00S 44°12' E 178°07'1 0.2 1030.6 10.5
2017-Jun-17 10:00S 44°11' E 178°08'0 0.4 1030.4 10.8
2017-Jun-17 09:00S 44°11' E 178°07'1 0.9 1030.3 10.9
2017-Jun-17 08:00S 44°11' E 178°06'1 1.0 1030.1 11.0
2017-Jun-17 07:00S 44°11' E 178°05'0 0.4 1029.9 11.0
2017-Jun-17 06:00S 44°11' E 178°05'0 0.0 1029.5 11.0
2017-Jun-17 05:00S 44°11' E 178°05'0 0.4 1029.2 11.0
2017-Jun-17 04:00S 44°11' E 178°05'1 0.4 1028.6 11.0
2017-Jun-17 02:00S 44°10' E 178°04'1 0.2 1028.4 11.0
2017-Jun-16 22:00S 44°10' E 178°05'1 0.3 1028.9 11.0
2017-Jun-16 20:00S 44°10' E 178°05'1 0.7 1028.1 11.0
2017-Jun-16 19:00S 44°10' E 178°04'0 0.4 1027.6 11.0
2017-Jun-16 18:00S 44°10' E 178°05'1 0.7 1027.4 11.0
2017-Jun-16 17:00S 44°09' E 178°04'0 0.0 1027.1 11.0
2017-Jun-16 16:00S 44°09' E 178°04'1 0.7 1026.8 11.0
2017-Jun-16 15:00S 44°08' E 178°04'0 0.0 1026.7 11.0
2017-Jun-16 14:00S 44°08' E 178°04'1 0.6 1026.6 11.0
2017-Jun-16 12:00S 44°08' E 178°05'1 0.6 1026.1 11.0
2017-Jun-16 11:00S 44°08' E 178°05'0 0.4 1025.8 11.0
2017-Jun-16 10:00S 44°08' E 178°06'1 0.7 1025.4 11.0
2017-Jun-16 09:00S 44°08' E 178°07'0 0.4 1025.0 11.0
2017-Jun-16 08:00S 44°08' E 178°06'1 0.5 1024.4 11.0
2017-Jun-16 06:00S 44°09' E 178°05'1 0.6 1023.8 10.9
2017-Jun-16 05:00S 44°10' E 178°05'0 0.4 1023.3 10.9
2017-Jun-16 04:00S 44°10' E 178°04'1 0.7 1022.7 10.9
2017-Jun-16 03:00S 44°09' E 178°04'0 0.0 1022.2 11.0
2017-Jun-16 02:00S 44°09' E 178°04'1 0.3 1021.6 11.0
2017-Jun-15 22:00S 44°09' E 178°05'1 1.4 1020.9 10.7
2017-Jun-15 21:00S 44°10' E 178°07'   1020.2 10.7
Track history (hours):
 
Tides and Currents Weather Stations Pressure Air Temp Water Temp Dewpoint Dewpoint Depression Visibility Wind Speed Wind Dir Waves Ship Positions

Drifting buoy 56916

Last reported at 2017-Jun-25 21:00 UTC. Time now 2017-Jun-25 22:36 UTC.
Position S 44°28' E 179°11'.

Barometer 1017.6 mb
Water temperature 10.6 ° C

Date/timePositionNaut miles runAvg speedWind from/ knotsBaromVisibWave heightAir tempDewpointWater temp
2017-Jun-25 21:00S 44°28' E 179°11'2 2.1 1017.6 10.6
2017-Jun-25 20:00S 44°29' E 179°08'0 0.0 1017.1 10.6
2017-Jun-25 19:00S 44°29' E 179°08'2 1.8 1016.6 10.6
2017-Jun-25 18:00S 44°31' E 179°07'2 1.8 1015.9 10.5
2017-Jun-25 17:00S 44°32' E 179°05'0 0.0 1015.1 10.5
2017-Jun-25 16:00S 44°32' E 179°05'2 2.5 1014.6 10.5
2017-Jun-25 15:00S 44°34' E 179°02'0 0.0 1014.4 10.5
2017-Jun-25 14:00S 44°34' E 179°02'3 1.0 1014.1 10.5
2017-Jun-25 11:00S 44°35' E 178°59'1 1.3 1011.8 10.3
2017-Jun-25 10:00S 44°35' E 178°57'0 0.0 1010.8 10.3
2017-Jun-25 09:00S 44°35' E 178°57'3 2.8 1009.8 10.3
2017-Jun-25 08:00S 44°37' E 178°54'1 1.3 1008.6 10.3
2017-Jun-25 07:00S 44°37' E 178°52'2 2.1 1007.2 10.3
2017-Jun-25 06:00S 44°38' E 178°50'0 0.0 1006.0 10.2
2017-Jun-25 05:00S 44°38' E 178°50'2 2.2 1004.7 10.2
2017-Jun-25 04:00S 44°39' E 178°47'4 3.9 1003.8 10.2
2017-Jun-25 03:00S 44°40' E 178°41'0 0.0 1002.7 10.2
2017-Jun-25 02:00S 44°40' E 178°41'1 0.3 1001.6 10.1
2017-Jun-24 22:00S 44°41' E 178°41'0 0.0 998.9 10.0
2017-Jun-24 21:00S 44°41' E 178°41'1 1.4 997.8 10.0
2017-Jun-24 20:00S 44°41' E 178°39'0 0.0 996.6 10.1
2017-Jun-24 19:00S 44°41' E 178°39'4 1.9 995.3 10.1
2017-Jun-24 17:00S 44°43' E 178°34'1 1.4 992.3 10.1
2017-Jun-24 16:00S 44°43' E 178°32'0 0.0 991.3 10.1
2017-Jun-24 15:00S 44°43' E 178°32'1 1.5 991.2 10.1
2017-Jun-24 14:00S 44°41' E 178°31'0 0.0 991.3 10.1
2017-Jun-24 13:00S 44°41' E 178°31'0 0.2 990.8 10.1
2017-Jun-24 11:00S 44°41' E 178°31'1 0.7 991.8 10.1
2017-Jun-24 10:00S 44°41' E 178°30'1 0.7 992.0 10.1
2017-Jun-24 09:00S 44°40' E 178°31'1 0.7 992.2 10.1
2017-Jun-24 08:00S 44°40' E 178°30'1 0.3 992.2 10.1
2017-Jun-24 06:00S 44°39' E 178°30'1 0.6 992.1 10.1
2017-Jun-24 05:00S 44°38' E 178°30'0 0.0 992.5 10.1
2017-Jun-24 04:00S 44°38' E 178°30'0 0.0 992.9 10.2
2017-Jun-24 03:00S 44°38' E 178°30'2 2.4 993.4 10.3
2017-Jun-24 02:00S 44°36' E 178°29'0 0.0 993.8 10.3
2017-Jun-23 21:00S 44°36' E 178°29'1 1.5 998.2 10.4
2017-Jun-23 20:00S 44°35' E 178°28'1 1.5 998.3 10.4
2017-Jun-23 19:00S 44°34' E 178°27'0 0.0 997.9 10.5
2017-Jun-23 18:00S 44°34' E 178°27'2 1.2 997.8 10.5
2017-Jun-23 16:00S 44°31' E 178°28'1 0.6 999.4 10.6
2017-Jun-23 14:00S 44°30' E 178°28'0 0.0 1002.4 10.6
2017-Jun-23 13:00S 44°30' E 178°28'4 4.2 1003.5 10.6
2017-Jun-23 12:00S 44°26' E 178°27'1 1.2 1004.7 10.7
2017-Jun-23 11:00S 44°27' E 178°27'1 1.2 1005.8 10.7
2017-Jun-23 10:00S 44°26' E 178°27'3 1.6 1006.4 10.7
2017-Jun-23 08:00S 44°23' E 178°28'3 2.7 1007.5 10.7
2017-Jun-23 07:00S 44°20' E 178°30'1 1.5 1008.2 10.7
2017-Jun-23 06:00S 44°19' E 178°31'1 1.3 1008.9 10.7
2017-Jun-23 05:00S 44°18' E 178°32'2 1.8 1009.6 10.8
2017-Jun-23 04:00S 44°17' E 178°34'0 0.0 1010.4 10.8
2017-Jun-23 03:00S 44°17' E 178°34'4 0.8 1011.2 10.8
2017-Jun-22 22:00S 44°14' E 178°38'2 1.0 1016.5 10.8
2017-Jun-22 20:00S 44°13' E 178°41'1 0.9 1016.9 10.7
2017-Jun-22 19:00S 44°13' E 178°42'1 0.9 1017.2 10.7
2017-Jun-22 18:00S 44°13' E 178°43'1 0.7 1017.2 10.7
2017-Jun-22 16:00S 44°14' E 178°45'4 3.5 1018.2 10.7
2017-Jun-22 15:00S 44°16' E 178°49'0 0.0 1018.8 10.7
2017-Jun-22 14:00S 44°16' E 178°49'0 0.0 1019.3 10.7
2017-Jun-22 13:00S 44°16' E 178°49'4 1.1 1019.8 10.7
2017-Jun-22 09:00S 44°19' E 178°53'1 0.7 1020.6 10.7
2017-Jun-22 08:00S 44°20' E 178°53'1 1.2 1020.7 10.7
2017-Jun-22 07:00S 44°21' E 178°53'1 0.6 1020.3 10.7
2017-Jun-22 06:00S 44°22' E 178°53'1 0.7 1020.1 10.7
2017-Jun-22 05:00S 44°22' E 178°54'1 1.5 1019.7 10.7
2017-Jun-22 04:00S 44°23' E 178°53'0 0.0 1019.7 10.7
2017-Jun-22 03:00S 44°23' E 178°53'4 0.8 1019.7 10.7
2017-Jun-21 22:00S 44°27' E 178°50'3 1.3 1021.2 10.7
2017-Jun-21 20:00S 44°28' E 178°47'0 0.0 1020.6 10.8
2017-Jun-21 19:00S 44°28' E 178°47'1 0.9 1020.9 10.7
2017-Jun-21 18:00S 44°28' E 178°46'3 0.9 1021.0 10.7
2017-Jun-21 15:00S 44°28' E 178°42'2 1.7 1021.3 10.7
2017-Jun-21 14:00S 44°28' E 178°40'0 0.0 1021.8 10.7
2017-Jun-21 13:00S 44°28' E 178°40'2 1.0 1022.0 10.7
2017-Jun-21 11:00S 44°26' E 178°37'2 1.8 1023.0 10.8
2017-Jun-21 10:00S 44°26' E 178°35'1 1.0 1023.1 10.8
2017-Jun-21 09:00S 44°25' E 178°34'1 0.6 1023.4 10.8
2017-Jun-21 08:00S 44°25' E 178°34'3 1.4 1023.3 10.8
2017-Jun-21 06:00S 44°22' E 178°32'1 1.2 1023.5 10.8
2017-Jun-21 05:00S 44°21' E 178°32'1 0.7 1023.8 10.8
2017-Jun-21 04:00S 44°20' E 178°31'0 0.0 1023.9 10.8
2017-Jun-21 03:00S 44°20' E 178°31'4 0.9 1024.4 10.8
2017-Jun-20 22:00S 44°16' E 178°33'1 1.0 1028.4 10.8
2017-Jun-20 21:00S 44°16' E 178°34'1 1.5 1028.8 10.8
2017-Jun-20 20:00S 44°14' E 178°35'0 0.0 1029.1 10.8
2017-Jun-20 19:00S 44°14' E 178°35'1 0.9 1029.4 10.8
2017-Jun-20 18:00S 44°14' E 178°37'0 0.0 1029.3 10.8
2017-Jun-20 17:00S 44°14' E 178°37'1 0.4 1029.5 10.8
2017-Jun-20 15:00S 44°14' E 178°37'2 0.9 1030.6 10.7
2017-Jun-20 13:00S 44°14' E 178°40'0 0.0 1031.0 10.7
2017-Jun-20 11:00S 44°14' E 178°40'1 0.7 1031.5 10.7
2017-Jun-20 10:00S 44°14' E 178°40'1 0.6 1031.4 10.7
2017-Jun-20 09:00S 44°14' E 178°40'2 1.8 1031.5 10.7
2017-Jun-20 08:00S 44°15' E 178°42'0 0.4 1031.4 10.7
2017-Jun-20 07:00S 44°15' E 178°41'1 1.0 1031.1 10.7
2017-Jun-20 06:00S 44°16' E 178°43'1 1.3 1031.0 10.7
2017-Jun-20 05:00S 44°17' E 178°42'0 0.0 1030.5 10.7
2017-Jun-20 04:00S 44°17' E 178°42'2 1.9 1030.4 10.7
2017-Jun-20 03:00S 44°19' E 178°43'4 4.2 1030.1 10.8
2017-Jun-20 02:00S 44°22' E 178°40'0 0.0 1029.9 10.8
2017-Jun-20 01:00S 44°22' E 178°40'2 0.5 1030.1 10.8
2017-Jun-19 21:00S 44°24' E 178°39'1 0.7 1030.7 10.7
2017-Jun-19 20:00S 44°25' E 178°38'1 0.9 1030.3 10.7
2017-Jun-19 19:00S 44°25' E 178°37'1 0.6 1029.9 10.9
2017-Jun-19 18:00S 44°25' E 178°37'1 1.4 1029.1 10.8
2017-Jun-19 17:00S 44°26' E 178°35'1 0.7 1028.9 10.8
2017-Jun-19 16:00S 44°26' E 178°35'0 0.0 1028.7 10.8
2017-Jun-19 15:00S 44°26' E 178°35'1 1.4 1028.9 10.8
2017-Jun-19 14:00S 44°27' E 178°33'1 1.5 1029.0 10.8
2017-Jun-19 13:00S 44°28' E 178°32'0 0.0 1028.7 10.8
2017-Jun-19 11:00S 44°28' E 178°32'3 3.2 1028.8 10.8
2017-Jun-19 10:00S 44°31' E 178°29'0 0.0 1028.5 10.8
2017-Jun-19 09:00S 44°31' E 178°29'2 2.2 1028.3 10.8
2017-Jun-19 08:00S 44°32' E 178°27'2 2.5 1028.0 10.8
2017-Jun-19 07:00S 44°34' E 178°25'0 0.0 1027.6 10.8
2017-Jun-19 06:00S 44°34' E 178°25'2 1.8 1026.9 10.8
2017-Jun-19 05:00S 44°35' E 178°22'2 2.5 1026.0 10.8
2017-Jun-19 04:00S 44°36' E 178°19'0 0.0 1025.3 10.8
2017-Jun-19 03:00S 44°36' E 178°19'0 0.0 1024.7 10.8
2017-Jun-19 02:00S 44°36' E 178°19'5 5.1 1023.9 10.8
2017-Jun-19 01:00S 44°36' E 178°12'3 0.7 1023.9 10.7
2017-Jun-18 20:00S 44°34' E 178°08'0 0.0 1021.7 10.7
2017-Jun-18 19:00S 44°34' E 178°08'2 2.5 1021.4 10.7
2017-Jun-18 18:00S 44°32' E 178°05'2 2.4 1021.3 10.7
2017-Jun-18 17:00S 44°30' E 178°05'0 0.2 1021.3 10.7
2017-Jun-18 15:00S 44°30' E 178°05'4 4.0 1022.4 10.7
2017-Jun-18 14:00S 44°26' E 178°03'3 2.5 1022.8 10.7
2017-Jun-18 13:00S 44°29' E 178°04'4 3.6 1023.1 10.6
2017-Jun-18 12:00S 44°25' E 178°04'1 1.5 1023.8 10.7
2017-Jun-18 11:00S 44°26' E 178°02'1 1.5 1024.7 10.6
2017-Jun-18 10:00S 44°25' E 178°04'2 1.8 1025.4 10.6
2017-Jun-18 09:00S 44°23' E 178°04'1 0.6 1025.7 10.6
2017-Jun-18 07:00S 44°22' E 178°03'2 1.8 1027.0 10.6
2017-Jun-18 06:00S 44°20' E 178°03'1 0.3 1027.5 10.6
2017-Jun-18 04:00S 44°20' E 178°03'1 0.4 1027.9 10.6
2017-Jun-18 02:00S 44°19' E 178°04'4 3.8 1029.0 10.6
2017-Jun-18 01:00S 44°16' E 178°05'0 0.0 1029.5 10.6
2017-Jun-17 22:00S 44°16' E 178°05'1 0.7 1031.3 10.6
2017-Jun-17 21:00S 44°15' E 178°06'1 0.6 1031.0 10.6
2017-Jun-17 20:00S 44°14' E 178°06'1 0.9 1031.0 10.5
2017-Jun-17 19:00S 44°14' E 178°07'0 0.4 1030.7 10.5
2017-Jun-17 18:00S 44°14' E 178°07'1 0.6 1030.5 10.5
2017-Jun-17 17:00S 44°14' E 178°07'1 0.7 1030.6 10.5
2017-Jun-17 16:00S 44°13' E 178°07'1 1.2 1030.6 10.5
2017-Jun-17 15:00S 44°12' E 178°07'1 0.7 1030.7 10.5
2017-Jun-17 14:00S 44°11' E 178°08'1 0.7 1030.8 10.5
2017-Jun-17 13:00S 44°12' E 178°07'1 0.2 1030.6 10.5
2017-Jun-17 10:00S 44°11' E 178°08'0 0.4 1030.4 10.8
2017-Jun-17 09:00S 44°11' E 178°07'1 0.9 1030.3 10.9
2017-Jun-17 08:00S 44°11' E 178°06'1 1.0 1030.1 11.0
2017-Jun-17 07:00S 44°11' E 178°05'0 0.4 1029.9 11.0
2017-Jun-17 06:00S 44°11' E 178°05'0 0.0 1029.5 11.0
2017-Jun-17 05:00S 44°11' E 178°05'0 0.4 1029.2 11.0
2017-Jun-17 04:00S 44°11' E 178°05'1 0.4 1028.6 11.0
2017-Jun-17 02:00S 44°10' E 178°04'1 0.2 1028.4 11.0
2017-Jun-16 22:00S 44°10' E 178°05'1 0.3 1028.9 11.0
2017-Jun-16 20:00S 44°10' E 178°05'1 0.7 1028.1 11.0
2017-Jun-16 19:00S 44°10' E 178°04'0 0.4 1027.6 11.0
2017-Jun-16 18:00S 44°10' E 178°05'1 0.7 1027.4 11.0
2017-Jun-16 17:00S 44°09' E 178°04'0 0.0 1027.1 11.0
2017-Jun-16 16:00S 44°09' E 178°04'1 0.7 1026.8 11.0
2017-Jun-16 15:00S 44°08' E 178°04'0 0.0 1026.7 11.0
2017-Jun-16 14:00S 44°08' E 178°04'1 0.6 1026.6 11.0
2017-Jun-16 12:00S 44°08' E 178°05'1 0.6 1026.1 11.0
2017-Jun-16 11:00S 44°08' E 178°05'0 0.4 1025.8 11.0
2017-Jun-16 10:00S 44°08' E 178°06'1 0.7 1025.4 11.0
2017-Jun-16 09:00S 44°08' E 178°07'0 0.4 1025.0 11.0
2017-Jun-16 08:00S 44°08' E 178°06'1 0.5 1024.4 11.0
2017-Jun-16 06:00S 44°09' E 178°05'1 0.6 1023.8 10.9
2017-Jun-16 05:00S 44°10' E 178°05'0 0.4 1023.3 10.9
2017-Jun-16 04:00S 44°10' E 178°04'1 0.7 1022.7 10.9
2017-Jun-16 03:00S 44°09' E 178°04'0 0.0 1022.2 11.0
2017-Jun-16 02:00S 44°09' E 178°04'1 0.3 1021.6 11.0
2017-Jun-15 22:00S 44°09' E 178°05'1 1.4 1020.9 10.7
2017-Jun-15 21:00S 44°10' E 178°07'   1020.2 10.7

Dump ship's entire track history